sensor_id;sensor_type;location;lat;lon;timestamp;P1;durP1;ratioP1;P2;durP2;ratioP2
74926;SDS011;63488;48.092;-1.640;2023-02-28T00:00:38;7.68;;;4.15;;
74926;SDS011;63488;48.092;-1.640;2023-02-28T00:03:04;9.00;;;4.13;;
74926;SDS011;63488;48.092;-1.640;2023-02-28T00:05:29;9.40;;;4.47;;
74926;SDS011;63488;48.092;-1.640;2023-02-28T00:07:55;8.63;;;4.50;;
74926;SDS011;63488;48.092;-1.640;2023-02-28T00:10:22;6.55;;;4.38;;
74926;SDS011;63488;48.092;-1.640;2023-02-28T00:12:48;8.20;;;4.53;;
74926;SDS011;63488;48.092;-1.640;2023-02-28T00:15:14;8.98;;;4.72;;
74926;SDS011;63488;48.092;-1.640;2023-02-28T00:17:39;10.10;;;4.93;;
74926;SDS011;63488;48.092;-1.640;2023-02-28T00:20:05;6.60;;;4.20;;
74926;SDS011;63488;48.092;-1.640;2023-02-28T00:22:33;6.43;;;4.35;;
74926;SDS011;63488;48.092;-1.640;2023-02-28T00:24:58;7.15;;;4.25;;
74926;SDS011;63488;48.092;-1.640;2023-02-28T00:27:23;7.20;;;4.30;;
74926;SDS011;63488;48.092;-1.640;2023-02-28T00:29:49;6.68;;;4.28;;
74926;SDS011;63488;48.092;-1.640;2023-02-28T00:32:14;7.10;;;4.05;;
74926;SDS011;63488;48.092;-1.640;2023-02-28T00:34:40;7.95;;;4.20;;
74926;SDS011;63488;48.092;-1.640;2023-02-28T00:37:05;8.77;;;4.88;;
74926;SDS011;63488;48.092;-1.640;2023-02-28T00:39:31;7.05;;;4.63;;
74926;SDS011;63488;48.092;-1.640;2023-02-28T00:41:58;7.68;;;4.10;;
74926;SDS011;63488;48.092;-1.640;2023-02-28T00:44:23;7.45;;;4.20;;
74926;SDS011;63488;48.092;-1.640;2023-02-28T00:46:48;8.27;;;4.50;;
74926;SDS011;63488;48.092;-1.640;2023-02-28T00:49:14;7.00;;;4.50;;
74926;SDS011;63488;48.092;-1.640;2023-02-28T00:51:39;6.78;;;4.40;;
74926;SDS011;63488;48.092;-1.640;2023-02-28T00:54:04;6.32;;;3.97;;
74926;SDS011;63488;48.092;-1.640;2023-02-28T00:56:30;8.15;;;3.92;;
74926;SDS011;63488;48.092;-1.640;2023-02-28T00:58:55;7.50;;;4.00;;
74926;SDS011;63488;48.092;-1.640;2023-02-28T01:01:20;7.60;;;4.40;;
74926;SDS011;63488;48.092;-1.640;2023-02-28T01:03:45;7.38;;;4.05;;
74926;SDS011;63488;48.092;-1.640;2023-02-28T01:06:11;6.32;;;4.20;;
74926;SDS011;63488;48.092;-1.640;2023-02-28T01:08:36;5.88;;;3.97;;
74926;SDS011;63488;48.092;-1.640;2023-02-28T01:11:12;9.13;;;3.92;;
74926;SDS011;63488;48.092;-1.640;2023-02-28T01:13:37;7.85;;;4.10;;
74926;SDS011;63488;48.092;-1.640;2023-02-28T01:16:03;6.97;;;4.22;;
74926;SDS011;63488;48.092;-1.640;2023-02-28T01:18:28;7.97;;;4.18;;
74926;SDS011;63488;48.092;-1.640;2023-02-28T01:20:54;6.05;;;4.07;;
74926;SDS011;63488;48.092;-1.640;2023-02-28T01:23:19;7.25;;;3.92;;
74926;SDS011;63488;48.092;-1.640;2023-02-28T01:25:45;6.85;;;4.18;;
74926;SDS011;63488;48.092;-1.640;2023-02-28T01:28:10;7.47;;;3.75;;
74926;SDS011;63488;48.092;-1.640;2023-02-28T01:30:36;6.82;;;3.63;;
74926;SDS011;63488;48.092;-1.640;2023-02-28T01:33:01;6.55;;;3.72;;
74926;SDS011;63488;48.092;-1.640;2023-02-28T01:35:26;6.63;;;4.35;;
74926;SDS011;63488;48.092;-1.640;2023-02-28T01:37:52;6.95;;;3.42;;
74926;SDS011;63488;48.092;-1.640;2023-02-28T01:40:17;6.10;;;3.72;;
74926;SDS011;63488;48.092;-1.640;2023-02-28T01:42:43;7.05;;;3.45;;
74926;SDS011;63488;48.092;-1.640;2023-02-28T01:47:45;8.00;;;3.97;;
74926;SDS011;63488;48.092;-1.640;2023-02-28T01:50:14;6.53;;;3.55;;
74926;SDS011;63488;48.092;-1.640;2023-02-28T01:52:40;7.00;;;3.42;;
74926;SDS011;63488;48.092;-1.640;2023-02-28T01:55:06;4.68;;;3.50;;
74926;SDS011;63488;48.092;-1.640;2023-02-28T01:57:35;5.63;;;3.75;;
74926;SDS011;63488;48.092;-1.640;2023-02-28T02:00:10;6.60;;;3.65;;
74926;SDS011;63488;48.092;-1.640;2023-02-28T02:02:38;6.97;;;3.33;;
74926;SDS011;63488;48.092;-1.640;2023-02-28T02:05:06;5.97;;;3.60;;
74926;SDS011;63488;48.092;-1.640;2023-02-28T02:07:33;6.18;;;4.00;;
74926;SDS011;63488;48.092;-1.640;2023-02-28T02:12:39;6.35;;;3.40;;
74926;SDS011;63488;48.092;-1.640;2023-02-28T02:17:39;6.60;;;3.67;;
74926;SDS011;63488;48.092;-1.640;2023-02-28T02:20:46;7.88;;;3.78;;
74926;SDS011;63488;48.092;-1.640;2023-02-28T02:38:32;7.32;;;3.90;;
74926;SDS011;63488;48.092;-1.640;2023-02-28T02:46:04;6.45;;;3.47;;
74926;SDS011;63488;48.092;-1.640;2023-02-28T02:48:31;6.30;;;3.90;;
74926;SDS011;63488;48.092;-1.640;2023-02-28T02:50:59;5.65;;;3.35;;
74926;SDS011;63488;48.092;-1.640;2023-02-28T02:53:33;5.93;;;3.60;;
74926;SDS011;63488;48.092;-1.640;2023-02-28T02:56:00;5.90;;;3.53;;
74926;SDS011;63488;48.092;-1.640;2023-02-28T02:58:28;8.73;;;3.58;;
74926;SDS011;63488;48.092;-1.640;2023-02-28T03:00:56;7.05;;;3.78;;
74926;SDS011;63488;48.092;-1.640;2023-02-28T03:03:22;8.63;;;3.45;;
74926;SDS011;63488;48.092;-1.640;2023-02-28T03:05:54;5.82;;;3.55;;
74926;SDS011;63488;48.092;-1.640;2023-02-28T03:08:20;8.90;;;4.13;;
74926;SDS011;63488;48.092;-1.640;2023-02-28T03:10:46;7.15;;;3.42;;
74926;SDS011;63488;48.092;-1.640;2023-02-28T03:13:23;7.25;;;3.90;;
74926;SDS011;63488;48.092;-1.640;2023-02-28T03:18:30;4.45;;;3.40;;
74926;SDS011;63488;48.092;-1.640;2023-02-28T03:23:35;4.77;;;3.50;;
74926;SDS011;63488;48.092;-1.640;2023-02-28T03:26:04;7.40;;;3.65;;
74926;SDS011;63488;48.092;-1.640;2023-02-28T03:31:26;7.32;;;3.70;;
74926;SDS011;63488;48.092;-1.640;2023-02-28T03:33:54;7.50;;;3.67;;
74926;SDS011;63488;48.092;-1.640;2023-02-28T03:36:25;5.68;;;3.60;;
74926;SDS011;63488;48.092;-1.640;2023-02-28T03:38:59;6.55;;;3.63;;
74926;SDS011;63488;48.092;-1.640;2023-02-28T03:41:38;7.05;;;4.10;;
74926;SDS011;63488;48.092;-1.640;2023-02-28T03:44:06;6.43;;;3.65;;
74926;SDS011;63488;48.092;-1.640;2023-02-28T03:46:34;5.68;;;4.10;;
74926;SDS011;63488;48.092;-1.640;2023-02-28T03:51:45;4.95;;;3.70;;
74926;SDS011;63488;48.092;-1.640;2023-02-28T03:54:12;8.38;;;4.00;;
74926;SDS011;63488;48.092;-1.640;2023-02-28T03:56:39;6.88;;;3.88;;
74926;SDS011;63488;48.092;-1.640;2023-02-28T04:01:49;7.60;;;3.47;;
74926;SDS011;63488;48.092;-1.640;2023-02-28T04:04:15;6.55;;;4.10;;
74926;SDS011;63488;48.092;-1.640;2023-02-28T04:06:41;6.88;;;4.05;;
74926;SDS011;63488;48.092;-1.640;2023-02-28T04:09:08;7.13;;;4.10;;
74926;SDS011;63488;48.092;-1.640;2023-02-28T04:11:38;6.43;;;4.07;;
74926;SDS011;63488;48.092;-1.640;2023-02-28T04:14:04;6.13;;;4.03;;
74926;SDS011;63488;48.092;-1.640;2023-02-28T04:16:30;7.53;;;4.40;;
74926;SDS011;63488;48.092;-1.640;2023-02-28T04:18:55;5.38;;;3.90;;
74926;SDS011;63488;48.092;-1.640;2023-02-28T04:21:27;6.13;;;4.20;;
74926;SDS011;63488;48.092;-1.640;2023-02-28T04:23:53;4.78;;;3.88;;
74926;SDS011;63488;48.092;-1.640;2023-02-28T04:26:18;4.47;;;3.80;;
74926;SDS011;63488;48.092;-1.640;2023-02-28T04:28:43;6.07;;;4.47;;
74926;SDS011;63488;48.092;-1.640;2023-02-28T04:31:09;6.72;;;3.95;;
74926;SDS011;63488;48.092;-1.640;2023-02-28T04:33:34;6.18;;;3.88;;
74926;SDS011;63488;48.092;-1.640;2023-02-28T04:36:06;4.82;;;3.85;;
74926;SDS011;63488;48.092;-1.640;2023-02-28T04:38:35;8.40;;;4.40;;
74926;SDS011;63488;48.092;-1.640;2023-02-28T04:41:01;7.53;;;4.50;;
74926;SDS011;63488;48.092;-1.640;2023-02-28T04:43:27;5.30;;;3.97;;
74926;SDS011;63488;48.092;-1.640;2023-02-28T04:45:53;8.52;;;4.57;;
74926;SDS011;63488;48.092;-1.640;2023-02-28T04:48:21;6.85;;;4.30;;
74926;SDS011;63488;48.092;-1.640;2023-02-28T04:50:47;6.72;;;4.10;;
74926;SDS011;63488;48.092;-1.640;2023-02-28T04:53:12;6.35;;;4.57;;
74926;SDS011;63488;48.092;-1.640;2023-02-28T04:55:37;7.45;;;4.15;;
74926;SDS011;63488;48.092;-1.640;2023-02-28T04:58:05;5.13;;;3.90;;
74926;SDS011;63488;48.092;-1.640;2023-02-28T05:00:30;8.32;;;4.38;;
74926;SDS011;63488;48.092;-1.640;2023-02-28T05:02:55;6.65;;;4.60;;
74926;SDS011;63488;48.092;-1.640;2023-02-28T05:05:21;7.93;;;4.47;;
74926;SDS011;63488;48.092;-1.640;2023-02-28T05:07:46;6.65;;;4.05;;
74926;SDS011;63488;48.092;-1.640;2023-02-28T05:10:11;6.72;;;4.50;;
74926;SDS011;63488;48.092;-1.640;2023-02-28T05:12:37;8.23;;;4.78;;
74926;SDS011;63488;48.092;-1.640;2023-02-28T05:15:04;6.20;;;4.45;;
74926;SDS011;63488;48.092;-1.640;2023-02-28T05:17:30;6.28;;;4.28;;
74926;SDS011;63488;48.092;-1.640;2023-02-28T05:19:55;6.13;;;4.57;;
74926;SDS011;63488;48.092;-1.640;2023-02-28T05:22:20;6.15;;;4.57;;
74926;SDS011;63488;48.092;-1.640;2023-02-28T05:24:46;6.38;;;4.55;;
74926;SDS011;63488;48.092;-1.640;2023-02-28T05:27:11;6.32;;;4.75;;
74926;SDS011;63488;48.092;-1.640;2023-02-28T05:29:36;6.30;;;4.60;;
74926;SDS011;63488;48.092;-1.640;2023-02-28T05:34:31;7.40;;;4.80;;
74926;SDS011;63488;48.092;-1.640;2023-02-28T05:36:57;7.10;;;4.97;;
74926;SDS011;63488;48.092;-1.640;2023-02-28T05:39:22;8.65;;;5.43;;
74926;SDS011;63488;48.092;-1.640;2023-02-28T05:41:47;6.20;;;5.15;;
74926;SDS011;63488;48.092;-1.640;2023-02-28T05:44:13;8.40;;;5.35;;
74926;SDS011;63488;48.092;-1.640;2023-02-28T05:46:38;8.60;;;5.10;;
74926;SDS011;63488;48.092;-1.640;2023-02-28T05:49:03;7.95;;;5.00;;
74926;SDS011;63488;48.092;-1.640;2023-02-28T05:51:29;6.68;;;5.45;;
74926;SDS011;63488;48.092;-1.640;2023-02-28T05:53:54;7.85;;;5.15;;
74926;SDS011;63488;48.092;-1.640;2023-02-28T05:56:20;6.00;;;5.40;;
74926;SDS011;63488;48.092;-1.640;2023-02-28T05:58:45;6.45;;;5.55;;
74926;SDS011;63488;48.092;-1.640;2023-02-28T06:02:11;7.80;;;6.00;;
74926;SDS011;63488;48.092;-1.640;2023-02-28T06:04:06;8.82;;;5.40;;
74926;SDS011;63488;48.092;-1.640;2023-02-28T06:06:31;7.57;;;6.32;;
74926;SDS011;63488;48.092;-1.640;2023-02-28T06:08:59;6.32;;;5.40;;
74926;SDS011;63488;48.092;-1.640;2023-02-28T06:11:24;9.30;;;5.78;;
74926;SDS011;63488;48.092;-1.640;2023-02-28T06:13:58;7.05;;;5.53;;
74926;SDS011;63488;48.092;-1.640;2023-02-28T06:16:25;8.98;;;6.25;;
74926;SDS011;63488;48.092;-1.640;2023-02-28T06:18:50;7.32;;;5.70;;
74926;SDS011;63488;48.092;-1.640;2023-02-28T06:21:15;6.65;;;4.90;;
74926;SDS011;63488;48.092;-1.640;2023-02-28T06:23:41;8.23;;;5.97;;
74926;SDS011;63488;48.092;-1.640;2023-02-28T06:26:06;5.97;;;5.20;;
74926;SDS011;63488;48.092;-1.640;2023-02-28T06:28:31;8.55;;;4.80;;
74926;SDS011;63488;48.092;-1.640;2023-02-28T06:30:57;9.13;;;5.38;;
74926;SDS011;63488;48.092;-1.640;2023-02-28T06:33:22;7.75;;;5.70;;
74926;SDS011;63488;48.092;-1.640;2023-02-28T06:35:49;9.07;;;5.57;;
74926;SDS011;63488;48.092;-1.640;2023-02-28T06:38:15;7.28;;;5.50;;
74926;SDS011;63488;48.092;-1.640;2023-02-28T06:40:40;6.22;;;4.68;;
74926;SDS011;63488;48.092;-1.640;2023-02-28T06:43:06;9.38;;;5.65;;
74926;SDS011;63488;48.092;-1.640;2023-02-28T06:45:32;8.73;;;6.25;;
74926;SDS011;63488;48.092;-1.640;2023-02-28T06:47:57;8.65;;;7.00;;
74926;SDS011;63488;48.092;-1.640;2023-02-28T06:50:23;7.80;;;6.47;;
74926;SDS011;63488;48.092;-1.640;2023-02-28T06:52:48;8.30;;;6.70;;
74926;SDS011;63488;48.092;-1.640;2023-02-28T06:55:18;9.73;;;6.57;;
74926;SDS011;63488;48.092;-1.640;2023-02-28T06:57:44;8.65;;;6.20;;
74926;SDS011;63488;48.092;-1.640;2023-02-28T07:00:09;9.27;;;6.65;;
74926;SDS011;63488;48.092;-1.640;2023-02-28T07:02:36;8.05;;;6.30;;
74926;SDS011;63488;48.092;-1.640;2023-02-28T07:05:01;9.02;;;7.30;;
74926;SDS011;63488;48.092;-1.640;2023-02-28T07:07:26;9.45;;;7.15;;
74926;SDS011;63488;48.092;-1.640;2023-02-28T07:09:52;9.45;;;7.28;;
74926;SDS011;63488;48.092;-1.640;2023-02-28T07:12:17;10.38;;;7.80;;
74926;SDS011;63488;48.092;-1.640;2023-02-28T07:14:42;10.30;;;7.75;;
74926;SDS011;63488;48.092;-1.640;2023-02-28T07:17:08;8.82;;;7.43;;
74926;SDS011;63488;48.092;-1.640;2023-02-28T07:19:35;10.45;;;7.57;;
74926;SDS011;63488;48.092;-1.640;2023-02-28T07:22:01;11.85;;;7.93;;
74926;SDS011;63488;48.092;-1.640;2023-02-28T07:24:28;8.90;;;7.50;;
74926;SDS011;63488;48.092;-1.640;2023-02-28T07:26:54;10.00;;;7.95;;
74926;SDS011;63488;48.092;-1.640;2023-02-28T07:29:19;9.55;;;7.38;;
74926;SDS011;63488;48.092;-1.640;2023-02-28T07:31:45;12.38;;;8.52;;
74926;SDS011;63488;48.092;-1.640;2023-02-28T07:34:11;10.43;;;8.88;;
74926;SDS011;63488;48.092;-1.640;2023-02-28T07:36:36;9.57;;;8.02;;
74926;SDS011;63488;48.092;-1.640;2023-02-28T07:39:02;9.45;;;8.00;;
74926;SDS011;63488;48.092;-1.640;2023-02-28T07:41:29;10.07;;;8.00;;
74926;SDS011;63488;48.092;-1.640;2023-02-28T07:43:54;10.75;;;8.07;;
74926;SDS011;63488;48.092;-1.640;2023-02-28T07:46:22;11.10;;;7.85;;
74926;SDS011;63488;48.092;-1.640;2023-02-28T07:48:47;14.65;;;9.00;;
74926;SDS011;63488;48.092;-1.640;2023-02-28T07:51:13;11.15;;;8.80;;
74926;SDS011;63488;48.092;-1.640;2023-02-28T07:53:38;10.07;;;8.45;;
74926;SDS011;63488;48.092;-1.640;2023-02-28T07:56:04;11.45;;;8.57;;
74926;SDS011;63488;48.092;-1.640;2023-02-28T07:58:30;13.10;;;9.52;;
74926;SDS011;63488;48.092;-1.640;2023-02-28T08:00:55;9.82;;;8.77;;
74926;SDS011;63488;48.092;-1.640;2023-02-28T08:03:21;16.45;;;9.38;;
74926;SDS011;63488;48.092;-1.640;2023-02-28T08:05:47;11.18;;;9.48;;
74926;SDS011;63488;48.092;-1.640;2023-02-28T08:08:13;11.40;;;9.32;;
74926;SDS011;63488;48.092;-1.640;2023-02-28T08:10:38;10.85;;;9.20;;
74926;SDS011;63488;48.092;-1.640;2023-02-28T08:13:04;13.38;;;10.68;;
74926;SDS011;63488;48.092;-1.640;2023-02-28T08:15:29;11.57;;;9.82;;
74926;SDS011;63488;48.092;-1.640;2023-02-28T08:17:54;13.68;;;10.18;;
74926;SDS011;63488;48.092;-1.640;2023-02-28T08:20:21;12.85;;;9.32;;
74926;SDS011;63488;48.092;-1.640;2023-02-28T08:22:47;14.13;;;10.43;;
74926;SDS011;63488;48.092;-1.640;2023-02-28T08:25:12;13.77;;;9.98;;
74926;SDS011;63488;48.092;-1.640;2023-02-28T08:27:37;13.43;;;9.70;;
74926;SDS011;63488;48.092;-1.640;2023-02-28T08:30:03;13.43;;;10.15;;
74926;SDS011;63488;48.092;-1.640;2023-02-28T08:32:28;11.75;;;9.70;;
74926;SDS011;63488;48.092;-1.640;2023-02-28T08:34:54;12.52;;;9.45;;
74926;SDS011;63488;48.092;-1.640;2023-02-28T08:37:19;14.32;;;9.70;;
74926;SDS011;63488;48.092;-1.640;2023-02-28T08:39:45;12.45;;;9.63;;
74926;SDS011;63488;48.092;-1.640;2023-02-28T08:42:10;12.30;;;10.68;;
74926;SDS011;63488;48.092;-1.640;2023-02-28T08:44:36;13.02;;;10.65;;
74926;SDS011;63488;48.092;-1.640;2023-02-28T08:47:01;11.38;;;9.40;;
74926;SDS011;63488;48.092;-1.640;2023-02-28T08:49:26;13.52;;;9.90;;
74926;SDS011;63488;48.092;-1.640;2023-02-28T08:51:52;13.73;;;10.45;;
74926;SDS011;63488;48.092;-1.640;2023-02-28T08:54:20;11.63;;;10.07;;
74926;SDS011;63488;48.092;-1.640;2023-02-28T08:56:46;11.88;;;10.02;;
74926;SDS011;63488;48.092;-1.640;2023-02-28T08:59:12;12.60;;;9.43;;
74926;SDS011;63488;48.092;-1.640;2023-02-28T09:01:37;11.55;;;9.27;;
74926;SDS011;63488;48.092;-1.640;2023-02-28T09:04:04;11.32;;;10.10;;
74926;SDS011;63488;48.092;-1.640;2023-02-28T09:06:32;11.70;;;9.35;;
74926;SDS011;63488;48.092;-1.640;2023-02-28T09:08:58;11.45;;;9.20;;
74926;SDS011;63488;48.092;-1.640;2023-02-28T09:11:24;10.70;;;9.13;;
74926;SDS011;63488;48.092;-1.640;2023-02-28T09:13:50;12.10;;;9.20;;
74926;SDS011;63488;48.092;-1.640;2023-02-28T09:16:16;12.93;;;9.23;;
74926;SDS011;63488;48.092;-1.640;2023-02-28T09:18:42;10.95;;;8.43;;
74926;SDS011;63488;48.092;-1.640;2023-02-28T09:21:14;12.65;;;8.20;;
74926;SDS011;63488;48.092;-1.640;2023-02-28T09:23:40;9.43;;;7.32;;
74926;SDS011;63488;48.092;-1.640;2023-02-28T09:26:06;10.50;;;7.50;;
74926;SDS011;63488;48.092;-1.640;2023-02-28T09:28:32;9.93;;;6.85;;
74926;SDS011;63488;48.092;-1.640;2023-02-28T09:30:57;8.20;;;6.43;;
74926;SDS011;63488;48.092;-1.640;2023-02-28T09:33:24;9.05;;;7.25;;
74926;SDS011;63488;48.092;-1.640;2023-02-28T09:35:50;8.57;;;7.20;;
74926;SDS011;63488;48.092;-1.640;2023-02-28T09:38:17;10.65;;;7.07;;
74926;SDS011;63488;48.092;-1.640;2023-02-28T09:40:50;9.80;;;7.47;;
74926;SDS011;63488;48.092;-1.640;2023-02-28T09:43:16;8.90;;;6.78;;
74926;SDS011;63488;48.092;-1.640;2023-02-28T09:45:46;10.85;;;7.18;;
74926;SDS011;63488;48.092;-1.640;2023-02-28T09:48:23;8.05;;;6.53;;
74926;SDS011;63488;48.092;-1.640;2023-02-28T09:50:50;10.32;;;6.50;;
74926;SDS011;63488;48.092;-1.640;2023-02-28T09:53:26;8.25;;;6.55;;
74926;SDS011;63488;48.092;-1.640;2023-02-28T09:55:55;7.53;;;5.97;;
74926;SDS011;63488;48.092;-1.640;2023-02-28T09:58:26;5.38;;;4.65;;
74926;SDS011;63488;48.092;-1.640;2023-02-28T10:00:56;6.88;;;4.88;;
74926;SDS011;63488;48.092;-1.640;2023-02-28T10:03:28;6.55;;;4.90;;
74926;SDS011;63488;48.092;-1.640;2023-02-28T10:05:56;6.38;;;5.20;;
74926;SDS011;63488;48.092;-1.640;2023-02-28T10:08:25;7.93;;;5.10;;
74926;SDS011;63488;48.092;-1.640;2023-02-28T10:10:57;6.78;;;4.78;;
74926;SDS011;63488;48.092;-1.640;2023-02-28T10:13:31;8.27;;;4.75;;
74926;SDS011;63488;48.092;-1.640;2023-02-28T10:16:05;5.57;;;4.40;;
74926;SDS011;63488;48.092;-1.640;2023-02-28T10:18:37;5.35;;;4.22;;
74926;SDS011;63488;48.092;-1.640;2023-02-28T10:21:03;4.90;;;3.20;;
74926;SDS011;63488;48.092;-1.640;2023-02-28T10:23:31;4.90;;;3.67;;
74926;SDS011;63488;48.092;-1.640;2023-02-28T10:26:00;6.05;;;4.20;;
74926;SDS011;63488;48.092;-1.640;2023-02-28T10:28:32;5.35;;;3.88;;
74926;SDS011;63488;48.092;-1.640;2023-02-28T10:30:57;6.45;;;4.88;;
74926;SDS011;63488;48.092;-1.640;2023-02-28T10:33:24;6.68;;;4.95;;
74926;SDS011;63488;48.092;-1.640;2023-02-28T10:35:50;7.45;;;5.40;;
74926;SDS011;63488;48.092;-1.640;2023-02-28T10:38:19;6.35;;;4.82;;
74926;SDS011;63488;48.092;-1.640;2023-02-28T10:40:44;6.55;;;4.50;;
74926;SDS011;63488;48.092;-1.640;2023-02-28T10:45:38;6.57;;;5.10;;
74926;SDS011;63488;48.092;-1.640;2023-02-28T10:52:55;8.68;;;4.72;;
74926;SDS011;63488;48.092;-1.640;2023-02-28T10:55:30;5.95;;;3.72;;
74926;SDS011;63488;48.092;-1.640;2023-02-28T10:57:56;5.05;;;3.22;;
74926;SDS011;63488;48.092;-1.640;2023-02-28T11:00:22;5.35;;;2.58;;
74926;SDS011;63488;48.092;-1.640;2023-02-28T11:02:50;4.07;;;2.85;;
74926;SDS011;63488;48.092;-1.640;2023-02-28T11:07:51;3.60;;;2.63;;
74926;SDS011;63488;48.092;-1.640;2023-02-28T11:10:21;4.68;;;3.08;;
74926;SDS011;63488;48.092;-1.640;2023-02-28T11:12:48;3.65;;;3.00;;
74926;SDS011;63488;48.092;-1.640;2023-02-28T11:15:22;4.50;;;2.88;;
74926;SDS011;63488;48.092;-1.640;2023-02-28T11:17:58;4.38;;;3.08;;
74926;SDS011;63488;48.092;-1.640;2023-02-28T11:20:26;3.15;;;2.78;;
74926;SDS011;63488;48.092;-1.640;2023-02-28T11:22:52;4.28;;;2.83;;
74926;SDS011;63488;48.092;-1.640;2023-02-28T11:25:27;3.90;;;2.75;;
74926;SDS011;63488;48.092;-1.640;2023-02-28T11:27:57;3.65;;;2.70;;
74926;SDS011;63488;48.092;-1.640;2023-02-28T11:30:36;3.90;;;2.40;;
74926;SDS011;63488;48.092;-1.640;2023-02-28T11:35:45;7.30;;;3.70;;
74926;SDS011;63488;48.092;-1.640;2023-02-28T11:38:11;3.83;;;2.88;;
74926;SDS011;63488;48.092;-1.640;2023-02-28T11:43:17;5.25;;;3.08;;
74926;SDS011;63488;48.092;-1.640;2023-02-28T11:48:23;4.45;;;2.92;;
74926;SDS011;63488;48.092;-1.640;2023-02-28T11:51:00;5.15;;;2.45;;
74926;SDS011;63488;48.092;-1.640;2023-02-28T11:56:01;4.93;;;3.42;;
74926;SDS011;63488;48.092;-1.640;2023-02-28T11:58:32;6.00;;;3.22;;
74926;SDS011;63488;48.092;-1.640;2023-02-28T12:03:43;3.47;;;3.00;;
74926;SDS011;63488;48.092;-1.640;2023-02-28T12:06:21;4.22;;;3.22;;
74926;SDS011;63488;48.092;-1.640;2023-02-28T12:08:49;4.32;;;2.80;;
74926;SDS011;63488;48.092;-1.640;2023-02-28T12:19:28;3.45;;;2.67;;
74926;SDS011;63488;48.092;-1.640;2023-02-28T12:24:40;4.65;;;2.97;;
74926;SDS011;63488;48.092;-1.640;2023-02-28T12:27:10;4.57;;;3.05;;
74926;SDS011;63488;48.092;-1.640;2023-02-28T12:29:46;5.97;;;3.03;;
74926;SDS011;63488;48.092;-1.640;2023-02-28T12:32:14;6.93;;;3.50;;
74926;SDS011;63488;48.092;-1.640;2023-02-28T12:34:43;4.10;;;3.38;;
74926;SDS011;63488;48.092;-1.640;2023-02-28T12:37:27;4.22;;;2.80;;
74926;SDS011;63488;48.092;-1.640;2023-02-28T12:39:58;4.05;;;2.90;;
74926;SDS011;63488;48.092;-1.640;2023-02-28T12:44:53;3.72;;;2.97;;
74926;SDS011;63488;48.092;-1.640;2023-02-28T12:47:19;6.70;;;2.95;;
74926;SDS011;63488;48.092;-1.640;2023-02-28T12:49:58;4.82;;;3.10;;
74926;SDS011;63488;48.092;-1.640;2023-02-28T12:57:35;6.18;;;3.08;;
74926;SDS011;63488;48.092;-1.640;2023-02-28T13:00:10;6.25;;;3.13;;
74926;SDS011;63488;48.092;-1.640;2023-02-28T13:10:14;5.00;;;2.60;;
74926;SDS011;63488;48.092;-1.640;2023-02-28T13:12:48;3.30;;;2.30;;
74926;SDS011;63488;48.092;-1.640;2023-02-28T13:15:19;3.65;;;2.70;;
74926;SDS011;63488;48.092;-1.640;2023-02-28T13:17:50;5.40;;;2.70;;
74926;SDS011;63488;48.092;-1.640;2023-02-28T13:20:20;4.13;;;2.72;;
74926;SDS011;63488;48.092;-1.640;2023-02-28T13:22:47;4.35;;;2.42;;
74926;SDS011;63488;48.092;-1.640;2023-02-28T13:27:51;3.75;;;2.70;;
74926;SDS011;63488;48.092;-1.640;2023-02-28T13:38:47;4.55;;;2.53;;
74926;SDS011;63488;48.092;-1.640;2023-02-28T13:44:04;4.53;;;2.55;;
74926;SDS011;63488;48.092;-1.640;2023-02-28T13:46:33;4.35;;;2.70;;
74926;SDS011;63488;48.092;-1.640;2023-02-28T13:52:06;4.50;;;2.45;;
74926;SDS011;63488;48.092;-1.640;2023-02-28T13:57:12;4.70;;;3.03;;
74926;SDS011;63488;48.092;-1.640;2023-02-28T13:59:51;3.80;;;2.40;;
74926;SDS011;63488;48.092;-1.640;2023-02-28T14:05:04;5.07;;;2.75;;
74926;SDS011;63488;48.092;-1.640;2023-02-28T14:07:38;3.80;;;2.88;;
74926;SDS011;63488;48.092;-1.640;2023-02-28T14:10:06;5.50;;;2.90;;
74926;SDS011;63488;48.092;-1.640;2023-02-28T14:18:25;3.45;;;3.00;;
74926;SDS011;63488;48.092;-1.640;2023-02-28T14:20:58;4.38;;;2.90;;
74926;SDS011;63488;48.092;-1.640;2023-02-28T14:26:30;4.82;;;2.75;;
74926;SDS011;63488;48.092;-1.640;2023-02-28T14:31:39;4.80;;;2.70;;
74926;SDS011;63488;48.092;-1.640;2023-02-28T14:36:50;5.05;;;2.75;;
74926;SDS011;63488;48.092;-1.640;2023-02-28T14:39:22;6.47;;;2.60;;
74926;SDS011;63488;48.092;-1.640;2023-02-28T14:41:49;5.32;;;3.10;;
74926;SDS011;63488;48.092;-1.640;2023-02-28T14:44:18;5.27;;;2.70;;
74926;SDS011;63488;48.092;-1.640;2023-02-28T14:46:45;3.60;;;3.03;;
74926;SDS011;63488;48.092;-1.640;2023-02-28T14:51:42;4.72;;;3.25;;
74926;SDS011;63488;48.092;-1.640;2023-02-28T14:54:12;4.65;;;3.60;;
74926;SDS011;63488;48.092;-1.640;2023-02-28T14:56:38;4.38;;;3.55;;
74926;SDS011;63488;48.092;-1.640;2023-02-28T14:59:05;8.43;;;3.55;;
74926;SDS011;63488;48.092;-1.640;2023-02-28T15:01:31;4.50;;;3.85;;
74926;SDS011;63488;48.092;-1.640;2023-02-28T15:04:00;6.20;;;4.22;;
74926;SDS011;63488;48.092;-1.640;2023-02-28T15:06:27;6.85;;;3.90;;
74926;SDS011;63488;48.092;-1.640;2023-02-28T15:09:06;5.28;;;4.07;;
74926;SDS011;63488;48.092;-1.640;2023-02-28T15:11:34;7.88;;;4.82;;
74926;SDS011;63488;48.092;-1.640;2023-02-28T15:14:00;6.00;;;4.80;;
74926;SDS011;63488;48.092;-1.640;2023-02-28T15:16:37;8.70;;;5.03;;
74926;SDS011;63488;48.092;-1.640;2023-02-28T15:19:06;5.80;;;4.20;;
74926;SDS011;63488;48.092;-1.640;2023-02-28T15:21:39;6.85;;;5.15;;
74926;SDS011;63488;48.092;-1.640;2023-02-28T15:26:45;5.75;;;4.57;;
74926;SDS011;63488;48.092;-1.640;2023-02-28T15:29:13;10.07;;;4.90;;
74926;SDS011;63488;48.092;-1.640;2023-02-28T15:31:40;5.95;;;4.65;;
74926;SDS011;63488;48.092;-1.640;2023-02-28T15:34:15;5.90;;;4.65;;
74926;SDS011;63488;48.092;-1.640;2023-02-28T15:36:43;6.18;;;4.15;;
74926;SDS011;63488;48.092;-1.640;2023-02-28T15:39:21;5.50;;;4.55;;
74926;SDS011;63488;48.092;-1.640;2023-02-28T15:41:47;5.38;;;4.45;;
74926;SDS011;63488;48.092;-1.640;2023-02-28T15:46:55;6.03;;;4.50;;
74926;SDS011;63488;48.092;-1.640;2023-02-28T15:49:21;6.50;;;5.00;;
74926;SDS011;63488;48.092;-1.640;2023-02-28T15:51:48;5.20;;;4.45;;
74926;SDS011;63488;48.092;-1.640;2023-02-28T15:54:16;8.32;;;5.50;;
74926;SDS011;63488;48.092;-1.640;2023-02-28T15:56:44;8.38;;;5.95;;
74926;SDS011;63488;48.092;-1.640;2023-02-28T15:59:13;6.82;;;5.85;;
74926;SDS011;63488;48.092;-1.640;2023-02-28T16:01:40;7.97;;;6.30;;
74926;SDS011;63488;48.092;-1.640;2023-02-28T16:04:15;6.93;;;5.93;;
74926;SDS011;63488;48.092;-1.640;2023-02-28T16:06:42;8.25;;;6.72;;
74926;SDS011;63488;48.092;-1.640;2023-02-28T16:09:10;7.88;;;6.60;;
74926;SDS011;63488;48.092;-1.640;2023-02-28T16:11:38;8.38;;;6.80;;
74926;SDS011;63488;48.092;-1.640;2023-02-28T16:14:03;9.80;;;7.18;;
74926;SDS011;63488;48.092;-1.640;2023-02-28T16:16:29;10.63;;;7.22;;
74926;SDS011;63488;48.092;-1.640;2023-02-28T16:18:55;7.22;;;6.53;;
74926;SDS011;63488;48.092;-1.640;2023-02-28T16:21:21;7.72;;;6.38;;
74926;SDS011;63488;48.092;-1.640;2023-02-28T16:23:46;10.77;;;6.95;;
74926;SDS011;63488;48.092;-1.640;2023-02-28T16:26:21;8.10;;;7.15;;
74926;SDS011;63488;48.092;-1.640;2023-02-28T16:28:48;8.52;;;7.13;;
74926;SDS011;63488;48.092;-1.640;2023-02-28T16:31:13;10.40;;;6.70;;
74926;SDS011;63488;48.092;-1.640;2023-02-28T16:33:41;7.15;;;6.35;;
74926;SDS011;63488;48.092;-1.640;2023-02-28T16:36:09;8.35;;;6.63;;
74926;SDS011;63488;48.092;-1.640;2023-02-28T16:38:34;8.02;;;6.72;;
74926;SDS011;63488;48.092;-1.640;2023-02-28T16:41:00;9.60;;;7.30;;
74926;SDS011;63488;48.092;-1.640;2023-02-28T16:43:25;9.23;;;7.30;;
74926;SDS011;63488;48.092;-1.640;2023-02-28T16:45:55;7.97;;;6.93;;
74926;SDS011;63488;48.092;-1.640;2023-02-28T16:48:21;10.55;;;7.25;;
74926;SDS011;63488;48.092;-1.640;2023-02-28T16:50:46;9.32;;;7.20;;